Latest Weather Observations for Trepell

IDQ60801

Issued at 1:32 pm EST Monday 27 June 2016 (issued every 30 minutes, with the page automatically refreshed every 10 minutes)

About weather observations | Map of weather stations | Latest weather observations for QLD | Other Formats
Station Details ID: 037036 Name: TREPELL AIRPORT Lat: -21.84 Lon: 140.89 Height: 266.2 m
Data from the previous 72 hours. | See also: Recent months at Trepell
Date/Time
EST
Temp
°C
App
Temp
°C
Dew
Point
°C
Rel
Hum
%
Delta-T
°C
Wind Press
QNH
hPa
Press
MSL
hPa
Rain since
9am
mm
Dir  Spd
km/h
Gust
km/h
Spd
kts
Gust
kts
27/01:30pm 14.9 9.4 7.5 61 3.7 SSW 26 33 14 18 1021.5 1021.0 0.0
27/01:00pm 15.0 10.1 8.3 64 3.4 S 24 33 13 18 1021.9 1021.4 0.0
27/12:30pm 14.5 9.6 8.5 67 3.1 S 24 32 13 17 1022.1 1021.6 0.0
27/12:00pm 14.4 9.5 8.4 67 3.0 S 24 32 13 17 1022.1 1021.6 0.0
27/11:30am 13.9 8.5 8.1 68 2.9 S 26 33 14 18 1022.3 1021.8 0.0
27/11:05am 13.6 8.6 8.2 70 2.7 S 24 33 13 18 1022.2 1021.7 0.0
27/11:00am 13.9 8.7 8.7 71 2.6 S 26 37 14 20 1022.2 1021.7 0.0
27/10:30am 13.2 8.0 8.7 74 2.3 S 26 35 14 19 1022.4 1021.9 0.0
27/10:00am 12.4 7.7 9.2 81 1.6 SSW 24 33 13 18 1022.4 1021.9 0.0
27/09:30am 11.6 6.5 9.3 86 1.2 SSW 26 35 14 19 1022.4 1021.9 0.0
27/09:08am 11.6 7.1 9.9 89 0.9 SSW 24 35 13 19 1022.1 1021.6 0.0
27/09:00am 11.9 7.9 10.5 91 0.7 S 22 28 12 15 1022.0 1021.5 0.0
27/08:36am 11.3 6.7 9.7 90 0.8 S 24 30 13 16 1021.6 1021.1 0.0
27/08:30am 11.5 7.2 9.4 87 1.1 SSW 22 30 12 16 1021.6 1021.1 0.0
27/08:00am 11.9 7.1 8.9 82 1.5 S 24 32 13 17 1021.3 1020.8 0.0
27/07:30am 11.8 7.0 8.8 82 1.5 SSW 24 32 13 17 1020.7 1020.2 0.0
27/07:00am 11.7 6.1 8.7 82 1.5 SSW 28 35 15 19 1020.0 1019.5 0.0
27/06:30am 11.9 6.7 8.9 82 1.5 SSW 26 33 14 18 1019.5 1019.1 0.0
27/06:00am 12.1 6.2 8.9 81 1.6 SSW 30 39 16 21 1019.2 1018.7 0.0
27/05:30am 12.2 5.9 8.9 80 1.7 SSW 32 46 17 25 1018.9 1018.4 0.0
27/05:18am 12.4 7.2 8.9 79 1.8 SSW 26 33 14 18 1018.7 1018.2 0.0
27/05:00am 12.5 7.7 9.0 79 1.8 SSW 24 33 13 18 1018.5 1018.0 0.0
27/04:30am 12.9 8.6 9.2 78 1.9 SSW 22 30 12 16 1018.5 1018.0 0.0
27/04:00am 13.4 9.2 9.6 78 2.0 SSW 22 28 12 15 1018.3 1017.8 0.0
27/03:30am 13.9 9.7 9.9 77 2.1 SSW 22 28 12 15 1018.1 1017.6 0.0
27/03:00am 14.2 10.4 9.8 75 2.3 SSW 20 24 11 13 1018.0 1017.5 0.0
27/02:30am 14.5 10.9 9.7 73 2.5 SSW 19 26 10 14 1018.0 1017.5 0.0
27/02:00am 14.6 11.5 8.8 68 3.0 S 15 20 8 11 1018.3 1017.8 0.0
27/01:30am 15.0 11.8 8.3 64 3.4 S 15 20 8 11 1018.4 1017.9 0.0
27/01:00am 15.4 11.0 7.2 58 4.1 S 20 26 11 14 1018.2 1017.7 0.0
27/12:30am 16.3 10.4 5.9 50 5.1 S 26 32 14 17 1018.1 1017.6 0.0
27/12:00am 17.3 11.8 5.9 47 5.6 S 24 37 13 20 1017.8 1017.3 0.0
 
Date/Time
EST
Temp
°C
App
Temp
°C
Dew
Point
°C
Rel
Hum
%
Delta-T
°C
Wind Press
QNH
hPa
Press
MSL
hPa
Rain since
9am
mm
Dir  Spd
km/h
Gust
km/h
Spd
kts
Gust
kts
26/11:30pm 17.6 12.1 5.9 46 5.8 S 24 35 13 19 1017.6 1017.1 0.0
26/11:00pm 18.0 13.4 5.6 44 6.1 S 19 26 10 14 1017.4 1016.9 0.0
26/10:30pm 18.2 13.0 5.4 43 6.3 S 22 30 12 16 1017.3 1016.8 0.0
26/10:00pm 19.1 13.5 5.2 40 6.8 S 24 37 13 20 1016.8 1016.3 0.0
26/09:30pm 20.1 15.5 5.7 39 7.2 S 19 26 10 14 1016.3 1015.8 0.0
26/09:00pm 20.3 16.8 7.3 43 6.7 S 15 19 8 10 1015.7 1015.2 0.0
26/08:30pm 20.3 17.4 8.3 46 6.3 SSW 13 17 7 9 1015.2 1014.7 0.0
26/08:00pm 21.0 18.5 8.0 43 6.8 SSW 11 15 6 8 1014.8 1014.3 0.0
26/07:30pm 22.1 19.8 7.5 39 7.7 S 9 13 5 7 1014.2 1013.7 0.0
26/07:00pm 23.3 20.4 6.6 34 8.7 S 11 13 6 7 1013.8 1013.3 0.0
26/06:30pm 23.0 21.5 9.0 41 7.6 SSE 7 11 4 6 1013.4 1012.9 0.0
26/06:00pm 24.1 21.9 6.4 32 9.2 SSW 7 9 4 5 1013.1 1012.6 0.0
26/05:30pm 25.1 22.8 5.8 29 10.0 SSW 7 9 4 5 1012.8 1012.2 0.0
26/05:00pm 25.3 23.0 5.5 28 10.2 SSW 7 9 4 5 1012.7 1012.1 0.0
26/04:30pm 26.1 23.0 5.7 27 10.6 S 11 15 6 8 1012.5 1011.9 0.0
26/04:00pm 25.7 22.8 4.8 26 10.7 SE 9 15 5 8 1012.6 1012.0 0.0
26/03:30pm 25.8 22.8 4.3 25 10.9 S 9 13 5 7 1012.9 1012.3 0.0
26/03:00pm 25.4 22.5 4.5 26 10.6 SSE 9 15 5 8 1013.0 1012.5 0.0
26/02:30pm 25.1 22.2 4.8 27 10.3 SSE 9 15 5 8 1013.3 1012.8 0.0
26/02:00pm 25.2 21.9 4.3 26 10.6 SSW 11 17 6 9 1014.0 1013.5 0.0
26/01:30pm 24.9 22.2 3.5 25 10.6 WNW 7 15 4 8 1014.1 1013.6 0.0
26/01:00pm 24.2 21.3 2.4 24 10.6 WNW 7 15 4 8 1015.0 1014.5 0.0
26/12:30pm 23.0 20.2 1.9 25 10.0 WNW 6 11 3 6 1015.6 1015.1 0.0
26/12:00pm 22.8 19.6 2.8 27 9.7 NNE 9 15 5 8 1016.0 1015.4 0.0
26/11:30am 21.5 18.3 3.2 30 8.8 NE 9 15 5 8 1016.4 1015.9 0.0
26/11:00am 20.0 17.1 4.5 36 7.6 NNE 9 15 5 8 1016.8 1016.3 0.0
26/10:30am 19.0 16.7 4.7 39 7.0 N 6 9 3 5 1017.2 1016.7 0.0
26/10:00am 17.3 15.7 4.3 42 6.2 SW 2 7 1 4 1017.7 1017.2 0.0
26/09:30am 16.5 13.6 4.5 45 5.7 S 9 13 5 7 1017.6 1017.1 0.0
26/09:00am 15.6 12.4 5.2 50 5.0 S 11 15 6 8 1017.2 1016.7 0.0
26/08:30am 15.0 11.4 5.0 51 4.8 S 13 17 7 9 1017.1 1016.6 0.0
26/08:00am 14.0 11.6 5.4 56 4.1 E 7 9 4 5 1016.5 1016.0 0.0
26/07:30am 12.8 10.6 6.2 64 3.2 E 7 9 4 5 1016.4 1015.9 0.0
26/07:00am 13.5 12.5 5.7 59 3.7 CALM 0 0 0 0 1016.4 1015.9 0.0
26/06:30am 13.8 11.4 5.2 56 4.1 NE 7 9 4 5 1016.2 1015.7 0.0
26/06:00am 13.9 11.1 5.0 55 4.2 NE 9 11 5 6 1016.1 1015.5 0.0
26/05:30am 13.8 11.4 5.2 56 4.1 NE 7 9 4 5 1015.7 1015.2 0.0
26/05:00am 13.7 10.9 5.1 56 4.1 N 9 15 5 8 1015.6 1015.1 0.0
26/04:30am 13.5 10.8 5.4 58 3.9 NNE 9 11 5 6 1015.5 1015.0 0.0
26/04:00am 12.8 9.8 5.9 63 3.3 NE 11 13 6 7 1015.5 1015.0 0.0
26/03:30am 12.4 9.8 6.0 65 3.1 NNE 9 11 5 6 1015.7 1015.2 0.0
26/03:00am 12.4 9.8 6.0 65 3.1 NNE 9 11 5 6 1015.8 1015.3 0.0
26/02:30am 13.2 10.5 5.6 60 3.6 NNE 9 9 5 5 1016.2 1015.7 0.0
26/02:00am 13.4 10.7 5.6 59 3.7 NNE 9 9 5 5 1016.3 1015.8 0.0
26/01:30am 13.2 10.9 5.9 61 3.5 NE 7 9 4 5 1016.3 1015.8 0.0
26/01:00am 13.0 10.9 6.6 65 3.1 NNE 7 9 4 5 1016.2 1015.7 0.0
26/12:30am 13.4 11.5 6.5 63 3.4 E 6 7 3 4 1016.6 1016.1 0.0
26/12:00am 13.3 10.7 6.2 62 3.4 S 9 13 5 7 1017.1 1016.6 0.0
 
Date/Time
EST
Temp
°C
App
Temp
°C
Dew
Point
°C
Rel
Hum
%
Delta-T
°C
Wind Press
QNH
hPa
Press
MSL
hPa
Rain since
9am
mm
Dir  Spd
km/h
Gust
km/h
Spd
kts
Gust
kts
25/11:30pm 13.7 11.1 6.1 60 3.7 SSW 9 11 5 6 1017.4 1016.9 0.0
25/11:00pm 14.4 12.2 6.0 57 4.1 S 7 9 4 5 1017.7 1017.2 0.0
25/10:30pm 14.7 12.4 5.8 55 4.3 S 7 9 4 5 1017.9 1017.4 0.0
25/10:00pm 15.1 12.8 5.0 51 4.8 S 6 9 3 5 1017.9 1017.4 0.0
25/09:30pm 15.8 13.1 5.7 51 4.9 SE 9 15 5 8 1018.0 1017.5 0.0
25/09:00pm 16.4 13.3 5.4 48 5.3 SE 11 15 6 8 1017.8 1017.3 0.0
25/08:30pm 16.7 13.1 5.0 46 5.6 SE 13 17 7 9 1017.7 1017.2 0.0
25/08:00pm 16.9 13.2 4.3 43 6.0 SSE 13 15 7 8 1017.6 1017.1 0.0
25/07:30pm 17.4 13.7 4.4 42 6.2 SSE 13 15 7 8 1017.4 1016.9 0.0
25/07:00pm 17.9 14.2 4.5 41 6.5 SSE 13 15 7 8 1017.3 1016.8 0.0
25/06:30pm 18.6 14.7 3.6 37 7.1 SSE 13 15 7 8 1017.0 1016.5 0.0
25/06:00pm 19.8 16.2 3.1 33 7.9 SSE 11 13 6 7 1016.9 1016.4 0.0
25/05:30pm 20.9 17.3 2.7 30 8.7 SSE 11 15 6 8 1017.0 1016.5 0.0
25/05:00pm 21.3 18.0 2.6 29 8.9 SSE 9 15 5 8 1017.0 1016.5 0.0
25/04:30pm 21.4 17.2 1.7 27 9.2 SE 13 17 7 9 1017.0 1016.5 0.0
25/04:00pm 21.4 18.0 1.7 27 9.2 E 9 13 5 7 1016.8 1016.3 0.0
25/03:30pm 21.1 18.0 1.4 27 9.2 SE 7 13 4 7 1017.0 1016.5 0.0
25/03:00pm 21.0 17.8 2.8 30 8.7 ESE 9 19 5 10 1017.2 1016.7 0.0
25/02:30pm 20.6 16.3 1.0 27 9.0 NE 13 20 7 11 1017.5 1017.0 0.0
25/02:00pm 20.1 16.9 2.9 32 8.2 SE 9 19 5 10 1018.0 1017.5 0.0
25/01:30pm 19.0 15.8 2.8 34 7.6 ESE 9 13 5 7 1018.7 1018.2 0.0
25/01:00pm 19.4 16.8 4.0 36 7.4 E 7 13 4 7 1019.4 1019.0 0.0
25/12:30pm 18.1 14.5 2.8 36 7.1 ESE 11 15 6 8 1020.1 1019.6 0.0
25/12:00pm 17.6 13.3 3.5 39 6.6 E 15 22 8 12 1020.2 1019.7 0.0
25/11:30am 17.1 12.6 4.4 43 6.1 SE 17 24 9 13 1020.8 1020.3 0.0
25/11:00am 16.4 11.5 4.1 44 5.8 ESE 19 24 10 13 1021.2 1020.7 0.0
25/10:30am 15.0 9.8 3.8 47 5.2 ESE 20 32 11 17 1021.5 1021.0 0.0
25/10:00am 14.5 9.0 4.2 50 4.8 SE 22 32 12 17 1021.6 1021.1 0.0
25/09:30am 13.6 8.0 3.7 51 4.5 SE 22 28 12 15 1021.8 1021.3 0.0
25/09:00am 13.5 8.0 3.8 52 4.4 SE 22 28 12 15 1021.7 1021.2 0.0
25/08:30am 13.1 8.1 3.7 53 4.3 SE 19 24 10 13 1021.7 1021.2 0.0
25/08:00am 12.4 7.5 3.9 56 3.9 SE 19 28 10 15 1021.3 1020.8 0.0
25/07:30am 11.7 7.9 3.7 58 3.6 SE 13 22 7 12 1021.0 1020.5 0.0
25/07:00am 11.4 7.7 4.6 63 3.1 SE 13 17 7 9 1021.0 1020.5 0.0
25/06:30am 10.9 7.6 4.8 66 2.8 SE 11 15 6 8 1020.7 1020.2 0.0
25/06:00am 10.8 7.1 4.5 65 2.9 SSE 13 19 7 10 1020.5 1020.0 0.0
25/05:30am 10.5 6.9 4.9 68 2.6 SSE 13 15 7 8 1020.2 1019.7 0.0
25/05:00am 10.5 7.7 5.3 70 2.4 SSE 9 11 5 6 1020.2 1019.7 0.0
25/04:30am 10.3 8.0 5.7 73 2.1 S 7 9 4 5 1020.1 1019.6 0.0
25/04:00am 10.2 7.5 5.6 73 2.1 SSW 9 11 5 6 1020.2 1019.7 0.0
25/03:30am 10.7 9.8 5.9 72 2.3 CALM 0 0 0 0 1020.1 1019.6 0.0
25/03:00am 10.8 8.5 5.8 71 2.3 SSW 7 9 4 5 1020.1 1019.6 0.0
25/02:30am 11.2 8.9 5.9 70 2.5 SW 7 9 4 5 1020.4 1019.9 0.0
25/02:00am 11.6 9.3 5.5 66 2.9 S 7 9 4 5 1020.2 1019.7 0.0
25/01:30am 12.1 8.7 5.7 65 3.0 S 13 15 7 8 1020.2 1019.7 0.0
25/01:00am 12.1 9.0 5.5 64 3.1 SSW 11 15 6 8 1020.3 1019.8 0.0
25/12:30am 12.5 9.4 5.4 62 3.3 SSW 11 15 6 8 1020.3 1019.8 0.0
25/12:00am 13.0 9.4 5.2 59 3.7 SSW 13 15 7 8 1020.4 1019.9 0.0
 
Date/Time
EST
Temp
°C
App
Temp
°C
Dew
Point
°C
Rel
Hum
%
Delta-T
°C
Wind Press
QNH
hPa
Press
MSL
hPa
Rain since
9am
mm
Dir  Spd
km/h
Gust
km/h
Spd
kts
Gust
kts
24/11:30pm 14.1 10.4 4.7 53 4.4 S 13 17 7 9 1020.4 1019.9 0.0
24/11:00pm 14.5 10.9 4.8 52 4.6 S 13 17 7 9 1020.4 1019.9 0.0
24/10:30pm 15.1 11.0 4.5 49 5.0 S 15 19 8 10 1020.4 1019.9 0.0
24/10:00pm 15.3 11.6 4.7 49 5.0 S 13 19 7 10 1020.4 1019.9 0.0
24/09:30pm 15.7 11.7 5.0 49 5.1 S 15 19 8 10 1020.2 1019.7 0.0
24/09:00pm 15.9 12.3 5.2 49 5.1 S 13 17 7 9 1020.3 1019.8 0.0
24/08:30pm 16.5 12.5 4.9 46 5.6 S 15 22 8 12 1020.1 1019.6 0.0
24/08:00pm 17.0 12.2 4.7 44 5.9 S 19 22 10 12 1019.5 1019.1 0.0
24/07:30pm 17.3 12.5 4.6 43 6.1 S 19 24 10 13 1019.4 1019.0 0.0
24/07:00pm 17.9 13.1 4.8 42 6.3 S 19 24 10 13 1019.1 1018.6 0.0
24/06:30pm 18.3 13.9 4.5 40 6.7 S 17 26 9 14 1018.8 1018.3 0.0
24/06:00pm 18.9 14.2 5.0 40 6.8 S 19 24 10 13 1018.6 1018.1 0.0
24/05:30pm 19.5 13.9 5.6 40 6.9 S 24 32 13 17 1018.4 1017.9 0.0
24/05:00pm 20.0 14.1 6.0 40 7.0 S 26 37 14 20 1018.1 1017.6 0.0
24/04:30pm 20.1 14.1 5.4 38 7.3 SSW 26 35 14 19 1018.1 1017.6 0.0
24/04:00pm 20.5 14.3 6.1 39 7.3 SSW 28 37 15 20 1018.0 1017.5 0.0
24/03:30pm 20.7 14.7 7.0 41 7.1 SSW 28 35 15 19 1018.1 1017.6 0.0
24/03:00pm 20.6 14.3 7.2 42 6.9 S 30 39 16 21 1018.1 1017.6 0.0
24/02:30pm 20.9 15.4 7.5 42 7.0 S 26 33 14 18 1018.1 1017.6 0.0
24/02:00pm 20.7 15.8 8.4 45 6.5 S 24 32 13 17 1018.3 1017.8 0.0

Other Formats:

Comma delimited format used in spreadsheet applications
http://www.bom.gov.au/fwo/IDQ60801/IDQ60801.94338.axf

JavaScript Object Notation format (JSON) in row-major order
http://www.bom.gov.au/fwo/IDQ60801/IDQ60801.94338.json